Time;durP1;ratioP1;P1;durP2;ratioP2;P2;SDS_P1;SDS_P2;PMS_P1;PMS_P2;Temp;Humidity;BMP_temperature;BMP_pressure;BME280_temperature;BME280_humidity;BME280_pressure;Samples;Min_cycle;Max_cycle;Signal;HPM_P1;HPM_P2
2021/12/28 00:00:54;;;;;;;28.73;18.27;;;0.90;99.90;;;;;;5023267;28;20174;-79
2021/12/28 00:03:20;;;;;;;29.13;18.20;;;0.90;99.90;;;;;;5026113;28;20197;-78
2021/12/28 00:05:45;;;;;;;27.60;18.77;;;0.90;99.90;;;;;;5037805;28;20172;-78
2021/12/28 00:08:12;;;;;;;32.30;19.13;;;0.80;99.90;;;;;;5036221;28;20261;-78
2021/12/28 00:10:39;;;;;;;28.80;18.17;;;0.80;99.90;;;;;;5053238;28;20197;-79
2021/12/28 00:13:05;;;;;;;27.83;18.03;;;0.90;99.90;;;;;;5037749;28;20225;-79
2021/12/28 00:15:35;;;;;;;26.83;18.63;;;0.90;99.90;;;;;;5034569;28;20184;-79
2021/12/28 00:18:02;;;;;;;33.83;18.57;;;0.90;99.90;;;;;;5032247;28;20177;-79
2021/12/28 00:20:34;;;;;;;28.83;18.90;;;0.90;99.90;;;;;;5059962;28;20177;-79
2021/12/28 00:23:01;;;;;;;30.27;18.70;;;0.90;99.90;;;;;;5044376;28;20269;-79
2021/12/28 00:25:27;;;;;;;31.40;18.60;;;0.90;99.90;;;;;;5040567;28;20174;-78
2021/12/28 00:27:53;;;;;;;28.20;18.17;;;1.00;99.90;;;;;;5061438;28;20189;-79
2021/12/28 00:30:21;;;;;;;29.30;18.33;;;1.00;99.90;;;;;;5061165;28;20180;-79
2021/12/28 00:32:52;;;;;;;29.10;17.90;;;0.90;99.90;;;;;;5039748;28;20219;-78
2021/12/28 00:35:19;;;;;;;28.23;18.40;;;1.00;99.90;;;;;;5060054;28;20212;-79
2021/12/28 00:37:45;;;;;;;27.93;18.33;;;1.00;99.90;;;;;;5034635;28;20178;-79
2021/12/28 00:40:11;;;;;;;28.87;18.73;;;1.00;99.90;;;;;;5026277;28;20184;-79
2021/12/28 00:42:36;;;;;;;26.37;17.27;;;0.90;99.90;;;;;;5031490;28;20296;-78
2021/12/28 00:45:04;;;;;;;29.73;17.97;;;1.00;99.90;;;;;;5035510;28;20178;-78
2021/12/28 00:47:29;;;;;;;32.90;19.53;;;0.90;99.90;;;;;;5055229;28;20177;-78
2021/12/28 00:49:56;;;;;;;29.17;18.57;;;0.90;99.90;;;;;;5023912;28;20514;-78
2021/12/28 00:52:22;;;;;;;30.53;19.03;;;0.90;99.90;;;;;;5025995;28;20224;-78
2021/12/28 00:54:48;;;;;;;34.20;19.37;;;0.90;99.90;;;;;;5041346;28;20677;-78
2021/12/28 00:57:13;;;;;;;31.40;18.27;;;0.90;99.90;;;;;;5041475;28;20209;-77
2021/12/28 00:59:39;;;;;;;28.80;19.23;;;1.00;99.90;;;;;;5032839;28;20177;-78
2021/12/28 01:02:05;;;;;;;28.40;18.60;;;1.00;99.90;;;;;;5031163;28;20193;-77
2021/12/28 01:04:31;;;;;;;31.37;18.00;;;1.00;99.90;;;;;;5059076;28;20206;-78
2021/12/28 01:06:57;;;;;;;27.90;17.47;;;1.00;99.90;;;;;;5034447;28;20178;-77
2021/12/28 01:09:29;;;;;;;30.10;18.43;;;1.00;99.90;;;;;;5048398;28;20174;-77
2021/12/28 01:11:56;;;;;;;28.70;18.50;;;1.00;99.90;;;;;;5031124;28;20201;-77
2021/12/28 01:14:21;;;;;;;28.60;17.77;;;1.00;99.90;;;;;;5031462;28;20181;-77
2021/12/28 01:16:47;;;;;;;27.60;17.73;;;1.10;99.90;;;;;;5045861;28;20210;-78
2021/12/28 01:19:13;;;;;;;27.63;18.20;;;1.00;99.90;;;;;;5018735;28;20248;-78
2021/12/28 01:21:38;;;;;;;29.07;18.27;;;1.10;99.90;;;;;;5020707;28;20359;-78
2021/12/28 01:24:04;;;;;;;28.00;17.33;;;1.10;99.90;;;;;;5020906;28;20220;-77
2021/12/28 01:26:30;;;;;;;29.67;18.47;;;1.10;99.90;;;;;;5020585;28;20312;-78
2021/12/28 01:29:00;;;;;;;28.70;18.43;;;1.10;99.90;;;;;;5053545;28;20177;-78
2021/12/28 01:31:26;;;;;;;26.97;17.93;;;1.10;99.90;;;;;;5021368;28;20227;-78
2021/12/28 01:33:51;;;;;;;27.83;18.77;;;1.10;99.90;;;;;;5024797;28;20224;-78
2021/12/28 01:36:17;;;;;;;31.20;18.07;;;1.00;99.90;;;;;;5025004;28;20243;-77
2021/12/28 01:38:43;;;;;;;28.10;17.33;;;1.10;99.90;;;;;;5026728;28;20590;-77
2021/12/28 01:41:10;;;;;;;29.87;18.10;;;1.10;99.90;;;;;;5018722;28;20193;-78
2021/12/28 01:43:40;;;;;;;27.70;17.97;;;1.00;99.90;;;;;;5016007;28;20178;-78
2021/12/28 01:46:07;;;;;;;28.73;17.43;;;1.00;99.90;;;;;;5018697;28;20182;-79
2021/12/28 01:48:35;;;;;;;28.37;17.90;;;1.00;99.90;;;;;;5038756;28;20177;-78
2021/12/28 01:51:09;;;;;;;29.33;17.53;;;1.00;99.90;;;;;;5020464;28;20185;-79
2021/12/28 01:53:35;;;;;;;27.50;17.97;;;1.00;99.90;;;;;;5020770;28;20207;-78
2021/12/28 01:56:06;;;;;;;27.00;18.40;;;1.00;99.90;;;;;;5022009;28;20177;-77
2021/12/28 01:58:32;;;;;;;30.17;18.60;;;1.00;99.90;;;;;;5020553;28;20177;-79
2021/12/28 02:00:58;;;;;;;27.23;18.33;;;1.00;99.90;;;;;;5021854;28;20202;-78
2021/12/28 02:03:26;;;;;;;27.33;17.27;;;1.00;99.90;;;;;;5021920;28;20193;-79
2021/12/28 02:05:52;;;;;;;27.70;17.87;;;1.00;99.90;;;;;;5040020;28;20185;-78
2021/12/28 02:08:24;;;;;;;27.10;17.73;;;1.00;99.90;;;;;;5023548;28;20181;-78
2021/12/28 02:10:52;;;;;;;27.73;17.50;;;1.10;99.90;;;;;;5022947;28;20177;-78
2021/12/28 02:13:19;;;;;;;27.37;17.90;;;1.10;99.90;;;;;;5021060;28;20216;-78
2021/12/28 02:15:46;;;;;;;27.13;16.80;;;1.10;99.90;;;;;;5021006;28;20177;-78
2021/12/28 02:18:14;;;;;;;28.53;18.23;;;1.20;99.90;;;;;;5007042;28;20169;-78
2021/12/28 02:20:41;;;;;;;26.93;17.43;;;1.10;99.90;;;;;;5020292;28;20184;-79
2021/12/28 02:23:07;;;;;;;29.63;18.30;;;1.20;99.90;;;;;;5020424;28;20201;-78
2021/12/28 02:25:35;;;;;;;28.43;18.10;;;1.20;99.90;;;;;;5020978;28;20181;-78
2021/12/28 02:28:02;;;;;;;27.47;17.50;;;1.10;99.90;;;;;;5020998;28;20173;-78
2021/12/28 02:30:28;;;;;;;26.63;17.47;;;1.20;99.90;;;;;;5020266;28;20181;-77
2021/12/28 02:32:56;;;;;;;27.70;18.63;;;1.20;99.90;;;;;;5020719;28;20715;-79
2021/12/28 02:35:24;;;;;;;27.30;17.60;;;1.30;99.90;;;;;;5022100;28;20204;-78
2021/12/28 02:37:51;;;;;;;29.33;17.97;;;1.20;99.90;;;;;;5023633;28;20192;-78
2021/12/28 02:40:24;;;;;;;28.03;17.63;;;1.20;99.90;;;;;;5029168;28;20260;-78
2021/12/28 02:42:51;;;;;;;27.83;17.73;;;1.20;99.90;;;;;;5020565;28;20708;-78
2021/12/28 02:45:26;;;;;;;30.97;17.90;;;1.30;99.90;;;;;;5020950;28;20173;-78
2021/12/28 02:47:52;;;;;;;29.83;18.33;;;1.30;99.90;;;;;;5020302;28;20185;-78
2021/12/28 02:50:24;;;;;;;27.23;17.40;;;1.20;99.90;;;;;;5038461;28;20173;-79
2021/12/28 02:52:51;;;;;;;27.67;18.50;;;1.20;99.90;;;;;;5017417;28;20209;-78
2021/12/28 02:55:21;;;;;;;26.80;16.70;;;1.30;99.90;;;;;;5049876;28;20169;-77
2021/12/28 02:57:52;;;;;;;27.97;17.20;;;1.30;99.90;;;;;;5038126;28;20177;-78
2021/12/28 03:00:39;;;;;;;26.67;17.67;;;1.30;99.90;;;;;;5021700;28;20207;-78
2021/12/28 03:03:16;;;;;;;31.80;18.50;;;1.30;99.90;;;;;;5021864;28;20269;-78
2021/12/28 03:05:44;;;;;;;30.47;18.13;;;1.30;99.90;;;;;;5037293;28;20189;-78
2021/12/28 03:08:12;;;;;;;29.23;17.80;;;1.40;99.90;;;;;;5019598;28;20200;-78
2021/12/28 03:10:39;;;;;;;30.37;18.10;;;1.30;99.90;;;;;;5020434;28;20177;-79
2021/12/28 03:13:06;;;;;;;29.43;18.03;;;1.20;99.90;;;;;;5016992;28;20206;-79
2021/12/28 03:15:32;;;;;;;28.47;18.00;;;1.30;99.90;;;;;;5017727;28;20219;-78
2021/12/28 03:17:58;;;;;;;30.90;18.77;;;1.30;99.90;;;;;;5038123;28;20182;-79
2021/12/28 03:20:24;;;;;;;29.20;18.77;;;1.30;99.90;;;;;;5021660;28;20181;-78
2021/12/28 03:22:49;;;;;;;31.27;18.93;;;1.30;99.90;;;;;;5018753;28;20201;-79
2021/12/28 03:25:15;;;;;;;29.80;18.43;;;1.30;99.90;;;;;;5037591;28;20209;-78
2021/12/28 03:27:42;;;;;;;33.43;19.07;;;1.30;99.90;;;;;;5015092;28;20182;-78
2021/12/28 03:30:12;;;;;;;27.90;18.23;;;1.30;99.90;;;;;;5019915;28;20219;-77
2021/12/28 03:32:38;;;;;;;29.63;18.43;;;1.20;99.90;;;;;;5020163;28;20296;-78
2021/12/28 03:35:06;;;;;;;30.90;19.00;;;1.30;99.90;;;;;;5020740;28;20209;-79
2021/12/28 03:37:33;;;;;;;32.87;19.13;;;1.30;99.90;;;;;;5036911;28;20196;-79
2021/12/28 03:39:59;;;;;;;36.20;20.43;;;1.20;99.90;;;;;;5024632;28;20173;-78
2021/12/28 03:42:25;;;;;;;30.43;19.70;;;1.20;99.90;;;;;;5017878;28;20213;-78
2021/12/28 03:44:52;;;;;;;31.70;19.70;;;1.20;99.90;;;;;;5020437;28;20201;-78
2021/12/28 03:47:18;;;;;;;31.63;20.00;;;1.20;99.90;;;;;;5025063;28;20549;-78
2021/12/28 03:49:44;;;;;;;33.77;19.87;;;1.20;99.90;;;;;;5024435;28;20188;-78
2021/12/28 03:52:09;;;;;;;31.77;19.03;;;1.20;99.90;;;;;;5016502;28;20245;-78
2021/12/28 03:54:35;;;;;;;34.93;19.83;;;1.20;99.90;;;;;;5017368;28;20200;-79
2021/12/28 03:57:02;;;;;;;32.13;19.23;;;1.30;99.90;;;;;;5042194;28;20170;-79
2021/12/28 03:59:29;;;;;;;31.50;19.43;;;1.20;99.90;;;;;;5025769;28;20193;-78
2021/12/28 04:01:55;;;;;;;29.23;18.93;;;1.20;99.90;;;;;;5025495;28;20189;-79
2021/12/28 04:04:21;;;;;;;31.17;19.63;;;1.20;99.90;;;;;;5022864;28;20178;-78
2021/12/28 04:06:47;;;;;;;29.83;19.80;;;1.20;99.90;;;;;;5025142;28;20181;-79
2021/12/28 04:09:19;;;;;;;34.37;20.53;;;1.20;99.90;;;;;;5041846;28;20208;-79
2021/12/28 04:11:45;;;;;;;30.27;18.93;;;1.20;99.90;;;;;;5041911;28;20296;-78
2021/12/28 04:14:11;;;;;;;31.33;19.73;;;1.20;99.90;;;;;;5031543;28;20201;-79
2021/12/28 04:16:37;;;;;;;32.43;20.80;;;1.20;99.90;;;;;;5033205;28;20174;-79
2021/12/28 04:19:04;;;;;;;33.93;20.97;;;1.20;99.90;;;;;;5033091;28;20174;-80
2021/12/28 04:21:31;;;;;;;34.20;21.50;;;1.20;99.90;;;;;;5030955;28;20533;-79
2021/12/28 04:23:56;;;;;;;33.17;20.80;;;1.20;99.90;;;;;;5031755;28;20208;-79
2021/12/28 04:26:22;;;;;;;34.03;19.80;;;1.10;99.90;;;;;;5026519;28;20181;-79
2021/12/28 04:28:48;;;;;;;30.47;19.57;;;1.20;99.90;;;;;;5024127;28;20180;-78
2021/12/28 04:31:14;;;;;;;33.40;20.00;;;1.20;99.90;;;;;;5024526;28;20181;-79
2021/12/28 04:33:40;;;;;;;32.03;19.80;;;1.20;99.90;;;;;;5023686;28;20288;-79
2021/12/28 04:36:14;;;;;;;32.03;19.80;;;1.20;99.90;;;;;;5024298;28;20173;-78
2021/12/28 04:38:43;;;;;;;33.33;20.57;;;1.10;99.90;;;;;;5035479;28;20184;-79
2021/12/28 04:41:10;;;;;;;31.73;19.90;;;1.10;99.90;;;;;;5044783;28;20181;-78
2021/12/28 04:43:36;;;;;;;30.80;19.43;;;1.10;99.90;;;;;;5031926;28;20193;-78
2021/12/28 04:46:03;;;;;;;31.80;19.53;;;1.10;99.90;;;;;;5038751;28;20199;-79
2021/12/28 04:48:29;;;;;;;32.93;20.10;;;1.10;99.90;;;;;;5040647;28;20196;-78
2021/12/28 04:50:55;;;;;;;33.17;20.07;;;1.20;99.90;;;;;;5040601;28;20190;-79
2021/12/28 04:53:22;;;;;;;33.50;21.03;;;1.10;99.90;;;;;;5040643;28;20227;-78
2021/12/28 04:55:50;;;;;;;35.30;20.70;;;1.10;99.90;;;;;;5036058;28;20221;-78
2021/12/28 04:58:16;;;;;;;33.03;19.83;;;1.10;99.90;;;;;;5064199;28;20184;-78
2021/12/28 05:00:43;;;;;;;33.57;20.40;;;1.10;99.90;;;;;;5041933;28;20181;-76
2021/12/28 05:03:10;;;;;;;30.90;18.73;;;1.10;99.90;;;;;;5041586;28;20185;-77
2021/12/28 05:05:39;;;;;;;32.90;20.43;;;1.10;99.90;;;;;;5043765;28;20173;-77
2021/12/28 05:08:05;;;;;;;33.23;20.30;;;1.10;99.90;;;;;;5042031;28;20166;-77
2021/12/28 05:10:32;;;;;;;31.80;19.70;;;1.20;99.90;;;;;;5038082;28;20165;-78
2021/12/28 05:12:57;;;;;;;33.40;20.23;;;1.10;99.90;;;;;;5024175;28;20235;-79
2021/12/28 05:15:23;;;;;;;30.73;18.70;;;1.20;99.90;;;;;;5039946;28;20182;-78
2021/12/28 05:17:49;;;;;;;30.40;19.03;;;1.20;99.90;;;;;;5023049;28;20177;-79
2021/12/28 05:20:14;;;;;;;30.50;19.00;;;1.30;99.90;;;;;;5023068;28;20177;-77
2021/12/28 05:22:40;;;;;;;29.27;19.50;;;1.30;99.90;;;;;;5021878;28;20208;-77
2021/12/28 05:25:07;;;;;;;33.63;20.70;;;1.30;99.90;;;;;;5019626;28;20209;-77
2021/12/28 05:27:33;;;;;;;30.77;19.40;;;1.30;99.90;;;;;;5021283;28;20181;-79
2021/12/28 05:29:59;;;;;;;30.70;19.03;;;1.30;99.90;;;;;;5042599;28;20215;-78
2021/12/28 05:32:25;;;;;;;30.23;19.27;;;1.30;99.90;;;;;;5015765;28;20194;-79
2021/12/28 05:34:50;;;;;;;31.33;20.00;;;1.40;99.90;;;;;;5046680;28;20165;-78
2021/12/28 05:37:16;;;;;;;29.13;19.13;;;1.30;99.90;;;;;;5015182;28;20232;-79
2021/12/28 05:39:42;;;;;;;32.33;20.30;;;1.40;99.90;;;;;;5020735;28;20663;-79
2021/12/28 05:42:08;;;;;;;31.67;19.63;;;1.30;99.90;;;;;;5023150;28;20295;-79
2021/12/28 05:44:34;;;;;;;31.50;19.87;;;1.30;99.90;;;;;;5027267;28;20173;-80
2021/12/28 05:47:00;;;;;;;30.47;19.47;;;1.40;99.90;;;;;;5022552;28;20656;-80
2021/12/28 05:49:26;;;;;;;34.50;20.83;;;1.40;99.90;;;;;;5023695;28;20224;-79
2021/12/28 05:51:52;;;;;;;29.77;19.77;;;1.40;99.90;;;;;;5025729;28;20197;-80
2021/12/28 05:54:18;;;;;;;34.40;20.20;;;1.40;99.90;;;;;;5025257;28;20184;-79
2021/12/28 05:56:45;;;;;;;31.87;19.57;;;1.40;99.90;;;;;;5003915;28;20245;-80
2021/12/28 05:59:11;;;;;;;29.73;18.97;;;1.30;99.90;;;;;;5025503;28;20257;-80
2021/12/28 06:01:37;;;;;;;30.73;20.13;;;1.40;99.90;;;;;;5023816;28;20216;-80
2021/12/28 06:04:04;;;;;;;31.40;20.33;;;1.40;99.90;;;;;;5040161;28;20182;-80
2021/12/28 06:06:30;;;;;;;30.17;19.40;;;1.40;99.90;;;;;;5022742;28;20181;-80
2021/12/28 06:08:55;;;;;;;30.80;19.67;;;1.40;99.90;;;;;;5026706;28;20177;-80
2021/12/28 06:11:21;;;;;;;30.13;20.33;;;1.40;99.90;;;;;;5019861;28;20185;-81
2021/12/28 06:13:47;;;;;;;33.20;20.20;;;1.40;99.90;;;;;;5047751;28;20227;-79
2021/12/28 06:16:14;;;;;;;34.40;20.23;;;1.40;99.90;;;;;;5034608;28;20178;-79
2021/12/28 06:18:41;;;;;;;34.80;20.97;;;1.30;99.90;;;;;;5029679;28;20181;-79
2021/12/28 06:21:07;;;;;;;32.07;20.10;;;1.40;99.90;;;;;;5025805;28;20176;-79
2021/12/28 06:23:33;;;;;;;32.30;20.03;;;1.40;99.90;;;;;;5025548;28;20207;-78
2021/12/28 06:25:59;;;;;;;31.93;20.53;;;1.30;99.90;;;;;;5026226;28;20185;-79
2021/12/28 06:28:26;;;;;;;33.20;20.53;;;1.30;99.90;;;;;;5023631;28;20545;-79
2021/12/28 06:30:53;;;;;;;30.73;20.17;;;1.30;99.90;;;;;;5024336;28;20177;-79
2021/12/28 06:33:22;;;;;;;33.63;20.77;;;1.20;99.90;;;;;;5019196;28;20585;-79
2021/12/28 06:35:49;;;;;;;32.27;20.57;;;1.20;99.90;;;;;;5040784;28;20519;-79
2021/12/28 06:38:16;;;;;;;32.17;21.27;;;1.20;99.90;;;;;;5030096;28;20211;-79
2021/12/28 06:40:42;;;;;;;34.83;21.60;;;1.30;99.90;;;;;;5027064;28;20173;-79
2021/12/28 06:43:08;;;;;;;33.20;21.73;;;1.10;99.90;;;;;;5027191;28;20715;-79
2021/12/28 06:45:34;;;;;;;36.10;22.23;;;1.10;99.90;;;;;;5020323;28;20174;-79
2021/12/28 06:48:00;;;;;;;35.83;22.77;;;1.10;99.90;;;;;;5022152;28;20177;-79
2021/12/28 06:50:26;;;;;;;36.80;23.20;;;1.10;99.90;;;;;;5024361;28;20224;-79
2021/12/28 06:52:51;;;;;;;35.77;21.93;;;1.10;99.90;;;;;;5024877;28;20213;-79
2021/12/28 06:55:17;;;;;;;40.53;24.80;;;1.10;99.90;;;;;;5020684;28;20192;-78
2021/12/28 06:57:43;;;;;;;37.60;23.20;;;1.10;99.90;;;;;;5019129;28;20177;-79
2021/12/28 07:00:13;;;;;;;41.87;23.73;;;1.10;99.90;;;;;;5023667;28;20178;-79
2021/12/28 07:02:39;;;;;;;38.10;24.20;;;1.10;99.90;;;;;;5023953;28;20201;-79
2021/12/28 07:05:06;;;;;;;40.83;25.23;;;1.10;99.90;;;;;;5017357;28;20189;-80
2021/12/28 07:07:32;;;;;;;41.43;24.93;;;1.00;99.90;;;;;;5039329;28;20675;-79
2021/12/28 07:09:58;;;;;;;40.97;26.57;;;1.10;99.90;;;;;;5023364;28;20265;-78
2021/12/28 07:12:25;;;;;;;40.13;25.23;;;1.10;99.90;;;;;;5022921;28;20241;-77
2021/12/28 07:14:51;;;;;;;45.27;26.73;;;1.10;99.90;;;;;;5023788;28;20169;-79
2021/12/28 07:17:16;;;;;;;42.10;26.20;;;1.00;99.90;;;;;;5017510;28;20174;-79
2021/12/28 07:19:42;;;;;;;46.67;26.47;;;1.00;99.90;;;;;;5043692;28;20181;-78
2021/12/28 07:22:08;;;;;;;43.57;25.70;;;1.00;99.90;;;;;;5022195;28;20709;-79
2021/12/28 07:24:33;;;;;;;44.37;26.87;;;1.00;99.90;;;;;;5043999;28;20173;-79
2021/12/28 07:26:59;;;;;;;46.33;27.10;;;1.00;99.90;;;;;;5026546;28;20195;-79
2021/12/28 07:29:25;;;;;;;43.13;27.77;;;1.00;99.90;;;;;;5045167;28;20201;-79
2021/12/28 07:31:51;;;;;;;44.33;27.20;;;1.00;99.90;;;;;;5043883;28;20197;-79
2021/12/28 07:34:17;;;;;;;54.57;27.90;;;1.00;99.90;;;;;;5027799;28;20273;-79
2021/12/28 07:36:44;;;;;;;51.87;27.03;;;1.00;99.90;;;;;;5046193;28;20181;-79
2021/12/28 07:39:09;;;;;;;48.77;28.83;;;1.10;99.90;;;;;;5025464;28;20170;-79
2021/12/28 07:41:35;;;;;;;44.80;27.83;;;1.10;99.90;;;;;;5027758;28;20216;-79
2021/12/28 07:44:02;;;;;;;45.97;27.93;;;1.10;99.90;;;;;;5022518;28;20208;-79
2021/12/28 07:46:27;;;;;;;46.63;28.67;;;1.10;99.90;;;;;;5043886;28;20173;-79
2021/12/28 07:48:53;;;;;;;48.70;28.43;;;1.10;99.90;;;;;;5021779;28;20191;-79
2021/12/28 07:51:19;;;;;;;49.67;29.53;;;1.00;99.90;;;;;;5046396;28;20193;-78
2021/12/28 07:53:44;;;;;;;50.67;29.00;;;1.10;99.90;;;;;;5027293;28;20215;-78
2021/12/28 07:56:10;;;;;;;52.93;30.97;;;1.10;99.90;;;;;;5027956;28;20684;-79
2021/12/28 07:58:36;;;;;;;53.30;29.77;;;1.10;99.90;;;;;;5029691;28;20180;-79
2021/12/28 08:01:02;;;;;;;50.83;29.60;;;1.10;99.90;;;;;;5022933;28;20261;-79
2021/12/28 08:03:27;;;;;;;48.03;27.53;;;1.10;99.90;;;;;;5022969;28;20848;-79
2021/12/28 08:05:53;;;;;;;49.70;29.27;;;1.10;99.90;;;;;;5027924;28;20181;-79
2021/12/28 08:08:19;;;;;;;49.53;29.53;;;1.10;99.90;;;;;;5030008;28;20181;-79
2021/12/28 08:10:45;;;;;;;52.53;29.70;;;1.10;99.90;;;;;;5028159;28;20188;-79
2021/12/28 08:13:11;;;;;;;52.90;29.53;;;1.20;99.90;;;;;;5033029;28;20212;-80
2021/12/28 08:15:37;;;;;;;49.27;29.70;;;1.10;99.90;;;;;;5030268;28;20245;-79
2021/12/28 08:18:04;;;;;;;48.63;30.20;;;1.10;99.90;;;;;;5034031;28;20189;-80
2021/12/28 08:20:30;;;;;;;50.27;29.50;;;1.10;99.90;;;;;;5034261;28;20189;-78
2021/12/28 08:22:57;;;;;;;47.90;30.53;;;1.10;99.90;;;;;;5034584;28;20193;-79
2021/12/28 08:25:23;;;;;;;54.83;31.13;;;1.20;99.90;;;;;;5032046;28;20180;-79
2021/12/28 08:27:50;;;;;;;54.50;31.10;;;1.20;99.90;;;;;;5027500;28;20764;-79
2021/12/28 08:30:18;;;;;;;56.13;31.60;;;1.30;99.90;;;;;;5044524;28;20269;-80
2021/12/28 08:32:44;;;;;;;53.90;31.10;;;1.20;99.90;;;;;;5028942;28;20206;-79
2021/12/28 08:35:14;;;;;;;57.83;33.13;;;1.10;99.90;;;;;;5042003;28;20208;-78
2021/12/28 08:37:40;;;;;;;50.33;31.10;;;1.20;99.90;;;;;;5028003;28;20170;-79
2021/12/28 08:40:08;;;;;;;53.27;31.30;;;1.10;99.90;;;;;;5030961;28;20173;-78
2021/12/28 08:42:34;;;;;;;52.63;32.33;;;1.30;99.90;;;;;;5028390;28;20224;-80
2021/12/28 08:45:00;;;;;;;56.37;31.73;;;1.30;99.90;;;;;;5030359;28;20174;-79
2021/12/28 08:47:27;;;;;;;56.00;32.50;;;1.30;99.90;;;;;;5025509;28;20173;-80
2021/12/28 08:49:57;;;;;;;57.17;33.63;;;1.30;99.90;;;;;;5030355;28;20220;-79
2021/12/28 08:52:23;;;;;;;52.53;32.03;;;1.30;99.90;;;;;;5031442;28;20209;-78
2021/12/28 08:54:49;;;;;;;55.60;32.57;;;1.30;99.90;;;;;;5031182;28;20268;-80
2021/12/28 08:57:16;;;;;;;52.33;31.93;;;1.30;99.90;;;;;;5046637;28;20191;-80
2021/12/28 08:59:42;;;;;;;54.53;30.83;;;1.30;99.90;;;;;;5028631;28;20173;-81
2021/12/28 09:02:09;;;;;;;57.10;32.07;;;1.30;99.90;;;;;;5036434;28;20204;-81
2021/12/28 09:04:36;;;;;;;54.27;30.47;;;1.30;99.90;;;;;;5028616;28;20187;-80
2021/12/28 09:07:02;;;;;;;53.13;32.50;;;1.30;99.90;;;;;;5028712;28;20171;-79
2021/12/28 09:09:28;;;;;;;58.10;33.87;;;1.30;99.90;;;;;;5047061;28;20178;-80
2021/12/28 09:11:54;;;;;;;57.90;32.63;;;1.40;99.90;;;;;;5029968;28;20233;-79
2021/12/28 09:14:20;;;;;;;58.70;34.37;;;1.40;99.90;;;;;;5052042;28;20180;-80
2021/12/28 09:16:45;;;;;;;57.70;32.40;;;1.40;99.90;;;;;;5034586;28;20536;-77
2021/12/28 09:19:11;;;;;;;61.53;33.73;;;1.30;99.90;;;;;;5040905;28;20264;-80
2021/12/28 09:21:36;;;;;;;64.13;33.57;;;1.40;99.90;;;;;;5031357;28;20189;-82
2021/12/28 09:24:03;;;;;;;64.37;35.80;;;1.40;99.90;;;;;;5033646;28;20165;-78
2021/12/28 09:26:28;;;;;;;65.27;35.63;;;1.40;99.90;;;;;;5036842;28;20185;-80
2021/12/28 09:28:54;;;;;;;60.23;34.13;;;1.40;99.90;;;;;;5037938;28;20157;-78
2021/12/28 09:31:20;;;;;;;62.93;33.77;;;1.40;99.90;;;;;;5037412;28;20172;-77
2021/12/28 09:33:45;;;;;;;65.90;36.50;;;1.40;99.90;;;;;;5041098;28;20217;-77
2021/12/28 09:36:14;;;;;;;66.17;34.97;;;1.50;99.90;;;;;;5041799;28;20196;-78
2021/12/28 09:38:41;;;;;;;62.53;34.80;;;1.50;99.90;;;;;;5041907;28;20177;-77
2021/12/28 09:41:07;;;;;;;66.57;36.53;;;1.50;99.90;;;;;;5041349;28;20192;-79
2021/12/28 09:43:33;;;;;;;64.87;34.53;;;1.50;99.90;;;;;;5039381;28;20169;-77
2021/12/28 09:45:59;;;;;;;68.87;35.37;;;1.50;99.90;;;;;;5032564;28;20182;-81
2021/12/28 09:48:25;;;;;;;63.67;34.63;;;1.60;99.90;;;;;;5027288;28;20177;-80
2021/12/28 09:50:50;;;;;;;63.50;34.50;;;1.60;99.90;;;;;;5028271;28;20176;-79
2021/12/28 09:53:16;;;;;;;68.80;35.17;;;1.60;99.90;;;;;;5043136;28;20262;-79
2021/12/28 09:55:42;;;;;;;65.13;35.30;;;1.60;99.90;;;;;;5021804;28;20192;-80
2021/12/28 09:58:09;;;;;;;65.07;34.13;;;1.60;99.90;;;;;;5025534;28;20206;-82
2021/12/28 10:00:36;;;;;;;67.30;35.90;;;1.70;99.90;;;;;;5025482;28;20173;-82
2021/12/28 10:03:02;;;;;;;65.43;35.50;;;1.70;99.90;;;;;;5019210;28;20715;-79
2021/12/28 10:05:29;;;;;;;67.10;34.87;;;1.60;99.90;;;;;;5041558;28;20264;-80
2021/12/28 10:07:59;;;;;;;65.67;34.83;;;1.50;99.90;;;;;;5023327;28;20181;-80
2021/12/28 10:10:30;;;;;;;61.77;36.00;;;1.40;99.90;;;;;;5026050;28;20181;-81
2021/12/28 10:12:58;;;;;;;69.30;36.17;;;1.40;99.90;;;;;;5025109;28;20215;-81
2021/12/28 10:15:26;;;;;;;73.13;35.97;;;1.50;99.90;;;;;;5027024;28;20192;-80
2021/12/28 10:17:54;;;;;;;75.33;37.47;;;1.60;99.90;;;;;;5025472;28;20174;-81
2021/12/28 10:20:26;;;;;;;67.43;36.20;;;1.70;99.90;;;;;;5026201;28;20170;-80
2021/12/28 10:22:58;;;;;;;69.97;35.70;;;1.70;99.90;;;;;;5025968;28;20205;-81
2021/12/28 10:25:34;;;;;;;65.00;36.83;;;1.70;99.90;;;;;;5025775;28;20174;-82
2021/12/28 10:28:09;;;;;;;62.87;35.50;;;1.70;99.90;;;;;;5027014;28;20170;-81
2021/12/28 10:30:45;;;;;;;66.97;34.77;;;1.80;99.90;;;;;;5025897;28;20725;-80
2021/12/28 10:33:15;;;;;;;67.17;36.30;;;1.70;99.90;;;;;;5026031;28;20276;-80
2021/12/28 10:35:47;;;;;;;74.97;37.50;;;1.80;99.90;;;;;;5023018;28;20169;-80
2021/12/28 10:38:18;;;;;;;71.00;36.43;;;1.90;99.90;;;;;;5042386;28;20609;-80
2021/12/28 10:40:52;;;;;;;70.20;36.10;;;1.80;99.90;;;;;;5033797;28;20181;-80
2021/12/28 10:43:20;;;;;;;71.87;38.27;;;1.80;99.90;;;;;;5041587;28;20231;-80
2021/12/28 10:46:00;;;;;;;71.67;37.00;;;1.80;99.90;;;;;;5040507;28;20181;-80
2021/12/28 10:48:31;;;;;;;68.90;38.23;;;1.80;99.90;;;;;;5025502;28;20624;-80
2021/12/28 10:51:13;;;;;;;70.80;38.03;;;1.80;99.90;;;;;;5023428;28;20217;-80
2021/12/28 10:56:51;;;;;;;73.13;36.13;;;1.80;99.90;;;;;;5047683;28;20177;-80
2021/12/28 10:59:31;;;;;;;70.17;37.60;;;1.80;99.90;;;;;;5031888;28;20169;-80
2021/12/28 11:01:57;;;;;;;70.27;36.13;;;1.90;99.90;;;;;;5033397;28;20231;-81
2021/12/28 11:04:31;;;;;;;72.60;37.40;;;1.80;99.90;;;;;;5048411;28;20174;-81
2021/12/28 11:06:57;;;;;;;70.80;37.10;;;1.80;99.90;;;;;;5032444;28;20627;-81
2021/12/28 11:09:26;;;;;;;69.47;38.17;;;1.80;99.90;;;;;;5032142;28;20212;-80
2021/12/28 11:11:53;;;;;;;72.67;38.10;;;1.90;99.90;;;;;;5031466;28;20208;-80
2021/12/28 11:14:25;;;;;;;71.57;37.17;;;1.90;99.90;;;;;;5030606;28;20262;-79
2021/12/28 11:17:00;;;;;;;72.27;39.37;;;2.00;99.90;;;;;;5037789;28;20177;-80
2021/12/28 11:19:33;;;;;;;68.17;36.03;;;2.00;99.90;;;;;;5034055;28;20177;-79
2021/12/28 11:22:01;;;;;;;72.33;39.87;;;1.90;99.90;;;;;;5038210;28;20223;-80
2021/12/28 11:24:36;;;;;;;68.30;37.00;;;1.90;99.90;;;;;;5031632;28;20181;-80
2021/12/28 11:27:04;;;;;;;66.13;37.33;;;1.90;99.90;;;;;;5035537;28;20171;-81
2021/12/28 11:29:32;;;;;;;67.60;37.93;;;1.90;99.90;;;;;;5052848;28;20201;-81
2021/12/28 11:32:01;;;;;;;68.10;37.93;;;1.90;99.90;;;;;;5033634;28;20189;-81
2021/12/28 11:34:34;;;;;;;70.93;38.33;;;1.80;99.90;;;;;;5046501;28;20207;-80
2021/12/28 11:37:14;;;;;;;70.07;37.03;;;1.80;99.90;;;;;;5030029;28;20184;-80
2021/12/28 11:39:53;;;;;;;65.13;38.30;;;1.70;99.90;;;;;;5023420;28;20174;-80
2021/12/28 11:42:21;;;;;;;69.37;37.03;;;1.70;99.90;;;;;;5019763;28;20300;-81
2021/12/28 11:44:47;;;;;;;71.80;37.43;;;1.70;99.90;;;;;;5072279;23;20219;-81
2021/12/28 11:47:14;;;;;;;79.43;39.03;;;1.70;99.90;;;;;;5101318;28;20172;-82
2021/12/28 11:49:41;;;;;;;71.43;38.03;;;1.80;99.90;;;;;;5093452;28;20191;-81
2021/12/28 11:52:10;;;;;;;72.77;39.17;;;1.90;99.90;;;;;;5097199;28;20180;-81
2021/12/28 11:54:38;;;;;;;71.00;38.07;;;1.90;99.90;;;;;;5096820;28;20700;-82
2021/12/28 11:57:20;;;;;;;65.93;36.93;;;1.90;99.90;;;;;;5078801;28;20205;-82
2021/12/28 11:59:53;;;;;;;67.13;36.23;;;1.90;99.90;;;;;;5078503;28;20207;-81
2021/12/28 12:02:18;;;;;;;69.13;38.73;;;1.90;99.90;;;;;;5093589;28;20168;-82
2021/12/28 12:04:53;;;;;;;68.03;37.77;;;1.90;99.90;;;;;;5079554;28;20275;-82
2021/12/28 12:07:23;;;;;;;71.17;37.70;;;1.80;99.90;;;;;;5088562;28;20196;-82
2021/12/28 12:09:49;;;;;;;72.13;37.47;;;1.90;99.90;;;;;;5075352;28;20172;-82
2021/12/28 12:12:22;;;;;;;73.07;37.17;;;1.90;99.90;;;;;;5078828;28;20188;-82
2021/12/28 12:15:09;;;;;;;67.80;37.57;;;2.00;99.90;;;;;;5072666;28;20207;-81
2021/12/28 12:17:39;;;;;;;66.90;37.23;;;2.00;99.90;;;;;;5087749;28;20386;-81
2021/12/28 12:20:17;;;;;;;63.37;35.10;;;2.00;99.90;;;;;;5094899;28;20252;-82
2021/12/28 12:22:45;;;;;;;67.67;35.13;;;2.10;99.90;;;;;;5074132;28;20184;-81
2021/12/28 12:25:14;;;;;;;62.73;35.40;;;2.10;99.90;;;;;;5076580;28;20195;-81
2021/12/28 12:27:47;;;;;;;66.00;35.37;;;2.10;99.90;;;;;;5073960;28;20221;-81
2021/12/28 12:30:25;;;;;;;61.73;35.07;;;2.10;99.90;;;;;;5070086;28;20180;-81
2021/12/28 12:33:02;;;;;;;63.70;34.83;;;2.10;99.90;;;;;;5087293;28;20204;-82
2021/12/28 12:35:38;;;;;;;63.93;35.53;;;2.00;99.90;;;;;;5065299;28;20193;-82
2021/12/28 12:38:24;;;;;;;66.50;35.53;;;2.00;99.90;;;;;;5087929;28;20642;-82
2021/12/28 12:41:12;;;;;;;62.83;34.97;;;2.00;99.90;;;;;;5068745;28;20173;-82